createdAt,value
2019-05-25T00:02:16.146Z,33.35
2019-05-25T00:04:46.463Z,32.85
2019-05-25T00:07:17.016Z,30.50
2019-05-25T00:09:48.446Z,33.30
2019-05-25T00:12:21.144Z,33.33
2019-05-25T00:14:51.728Z,33.23
2019-05-25T00:17:22.383Z,31.70
2019-05-25T00:19:54.631Z,29.40
2019-05-25T00:22:24.978Z,35.38
2019-05-25T00:24:55.534Z,33.65
2019-05-25T00:27:25.813Z,32.48
2019-05-25T00:29:56.053Z,35.73
2019-05-25T00:32:26.480Z,36.48
2019-05-25T00:34:56.983Z,29.82
2019-05-25T00:37:27.296Z,34.30
2019-05-25T00:39:57.526Z,31.93
2019-05-25T00:42:27.737Z,33.50
2019-05-25T00:44:57.960Z,35.75
2019-05-25T00:47:28.223Z,28.95
2019-05-25T00:49:59.522Z,30.30
2019-05-25T00:52:30.226Z,30.52
2019-05-25T00:55:00.960Z,34.05
2019-05-25T00:57:31.266Z,30.40
2019-05-25T01:00:01.482Z,32.98
2019-05-25T01:02:32.267Z,33.10
2019-05-25T01:05:02.852Z,30.88
2019-05-25T01:07:33.598Z,31.93
2019-05-25T01:10:06.351Z,30.25
2019-05-25T01:12:36.701Z,31.55
2019-05-25T01:15:08.049Z,32.80
2019-05-25T01:17:38.787Z,37.33
2019-05-25T01:20:12.731Z,36.45
2019-05-25T01:22:43.494Z,31.20
2019-05-25T01:25:15.042Z,35.68
2019-05-25T01:27:45.265Z,33.48
2019-05-25T01:30:15.989Z,37.20
2019-05-25T01:32:46.580Z,32.08
2019-05-25T01:35:17.267Z,35.15
2019-05-25T01:37:48.730Z,37.05
2019-05-25T01:40:21.316Z,33.65
2019-05-25T01:42:52.030Z,34.92
2019-05-25T01:45:22.654Z,36.77
2019-05-25T01:47:53.304Z,38.35
2019-05-25T01:50:23.655Z,39.23
2019-05-25T01:52:53.896Z,34.92
2019-05-25T01:55:24.456Z,31.20
2019-05-25T01:57:54.747Z,35.92
2019-05-25T02:00:27.025Z,36.28
2019-05-25T02:02:57.773Z,36.60
2019-05-25T02:05:28.467Z,39.65
2019-05-25T02:07:58.832Z,41.55
2019-05-25T02:10:29.033Z,33.85
2019-05-25T02:12:59.272Z,39.38
2019-05-25T02:15:29.847Z,37.70
2019-05-25T02:18:00.180Z,30.95
2019-05-25T02:20:30.437Z,33.58
2019-05-25T02:23:01.028Z,40.55
2019-05-25T02:25:31.670Z,40.67
2019-05-25T02:28:01.979Z,37.35
2019-05-25T02:30:32.222Z,36.65
2019-05-25T02:33:03.895Z,33.48
2019-05-25T02:35:34.179Z,34.98
2019-05-25T02:38:04.517Z,34.00
2019-05-25T02:40:34.770Z,38.85
2019-05-25T02:43:05.379Z,40.20
2019-05-25T02:45:36.754Z,34.58
2019-05-25T02:48:07.341Z,39.03
2019-05-25T02:50:37.634Z,34.67
2019-05-25T02:53:07.881Z,36.20
2019-05-25T02:55:38.421Z,34.78
2019-05-25T02:58:09.351Z,35.05
2019-05-25T03:00:39.625Z,37.33
2019-05-25T03:03:09.903Z,36.38
2019-05-25T03:05:40.878Z,32.65
2019-05-25T03:08:11.523Z,30.32
2019-05-25T03:10:42.879Z,39.35
2019-05-25T03:13:13.740Z,36.65
2019-05-25T03:15:44.267Z,32.63
2019-05-25T03:18:14.951Z,32.95
2019-05-25T03:20:45.188Z,33.67
2019-05-25T03:23:15.615Z,33.05
2019-05-25T03:25:49.748Z,35.75
2019-05-25T03:28:18.471Z,32.03
2019-05-25T03:30:48.801Z,33.65
2019-05-25T03:33:19.416Z,32.10
2019-05-25T03:35:49.957Z,35.98
2019-05-25T03:38:23.204Z,35.00
2019-05-25T03:40:53.864Z,34.78
2019-05-25T03:43:24.507Z,37.85
2019-05-25T03:45:55.184Z,29.55
2019-05-25T03:48:25.491Z,30.60
2019-05-25T03:50:56.084Z,29.67
2019-05-25T03:53:26.320Z,28.15
2019-05-25T03:56:05.221Z,24.32
2019-05-25T03:58:28.574Z,33.53
2019-05-25T04:00:59.156Z,24.65
2019-05-25T04:03:29.863Z,24.37
2019-05-25T04:06:00.144Z,25.90
2019-05-25T04:08:30.770Z,23.75
2019-05-25T04:11:02.868Z,22.07
2019-05-25T04:13:33.530Z,22.37
2019-05-25T04:16:04.584Z,20.65
2019-05-25T04:18:34.905Z,19.07
2019-05-25T04:21:05.155Z,20.08
2019-05-25T04:23:35.793Z,22.45
2019-05-25T04:26:21.352Z,19.15
2019-05-25T04:28:38.029Z,21.00
2019-05-25T04:31:09.796Z,20.77
2019-05-25T04:33:40.513Z,20.20
2019-05-25T04:36:11.133Z,24.23
2019-05-25T04:38:41.578Z,19.23
2019-05-25T04:41:12.133Z,19.12
2019-05-25T04:43:42.484Z,21.60
2019-05-25T04:46:12.882Z,20.05
2019-05-25T04:48:43.105Z,18.77
2019-05-25T04:51:13.375Z,24.55
2019-05-25T04:53:43.958Z,19.20
2019-05-25T04:56:14.274Z,19.23
2019-05-25T04:58:44.847Z,20.55
2019-05-25T05:01:15.248Z,22.87
2019-05-25T05:03:48.103Z,22.00
2019-05-25T05:06:18.416Z,15.70
2019-05-25T05:08:49.018Z,18.90
2019-05-25T05:11:19.312Z,16.70
2019-05-25T05:13:50.174Z,20.15
2019-05-25T05:16:20.566Z,15.78
2019-05-25T05:18:50.829Z,16.15
2019-05-25T05:21:21.038Z,17.52
2019-05-25T05:23:51.350Z,18.37
2019-05-25T05:26:21.996Z,20.85
2019-05-25T05:28:52.301Z,16.87
2019-05-25T05:31:23.883Z,15.90
2019-05-25T05:33:54.908Z,18.07
2019-05-25T05:36:27.652Z,15.78
2019-05-25T05:38:58.854Z,17.27
2019-05-25T05:41:32.902Z,15.78
2019-05-25T05:44:05.184Z,12.95
2019-05-25T05:46:40.279Z,12.50
2019-05-25T05:49:11.798Z,16.48
2019-05-25T05:51:44.587Z,14.05
2019-05-25T05:54:20.491Z,16.90
2019-05-25T05:56:50.850Z,11.38
2019-05-25T05:59:21.334Z,12.37
2019-05-25T06:01:51.547Z,8.83
2019-05-25T06:04:22.139Z,11.50
2019-05-25T06:06:52.792Z,12.40
2019-05-25T06:09:24.433Z,19.67
2019-05-25T06:11:55.001Z,19.02
2019-05-25T06:14:25.649Z,16.77
2019-05-25T06:16:57.560Z,18.92
2019-05-25T06:19:27.856Z,17.10
2019-05-25T06:21:58.115Z,16.95
2019-05-25T06:24:28.349Z,17.80
2019-05-25T06:26:58.570Z,15.68
2019-05-25T06:29:29.138Z,16.50
2019-05-25T06:31:59.800Z,19.52
2019-05-25T06:34:30.822Z,21.02
2019-05-25T06:37:01.453Z,20.65
2019-05-25T06:39:31.788Z,17.87
2019-05-25T06:42:02.144Z,24.32
2019-05-25T06:44:32.435Z,17.07
2019-05-25T06:47:02.684Z,13.03
2019-05-25T06:49:33.048Z,15.20
2019-05-25T06:52:04.611Z,11.63
2019-05-25T06:54:35.005Z,12.63
2019-05-25T06:57:05.292Z,13.15
2019-05-25T06:59:35.526Z,12.60
2019-05-25T07:02:05.838Z,10.43
2019-05-25T07:04:36.059Z,14.38
2019-05-25T07:07:06.312Z,7.12
2019-05-25T07:09:36.569Z,14.00
2019-05-25T07:12:06.922Z,7.78
2019-05-25T07:14:37.302Z,6.87
2019-05-25T07:17:07.914Z,7.00
2019-05-25T07:19:39.726Z,5.42
2019-05-25T07:22:10.389Z,8.20
2019-05-25T07:24:40.769Z,9.35
2019-05-25T07:27:11.446Z,8.78
2019-05-25T07:29:41.723Z,9.58
2019-05-25T07:32:11.893Z,9.23
2019-05-25T07:34:42.138Z,7.92
2019-05-25T07:37:12.410Z,8.23
2019-05-25T07:39:44.373Z,6.75
2019-05-25T07:42:14.645Z,11.00
2019-05-25T07:44:45.034Z,12.28
2019-05-25T07:47:15.771Z,9.98
2019-05-25T07:49:46.079Z,12.35
2019-05-25T07:52:16.391Z,9.90
2019-05-25T07:54:46.672Z,9.15
2019-05-25T07:57:17.261Z,9.90
2019-05-25T07:59:47.917Z,6.90
2019-05-25T08:02:18.254Z,6.78
2019-05-25T08:04:49.648Z,7.60
2019-05-25T08:07:20.553Z,7.03
2019-05-25T08:09:51.346Z,7.00
2019-05-25T08:12:21.660Z,9.18
2019-05-25T08:14:52.303Z,7.70
2019-05-25T08:17:22.948Z,6.45
2019-05-25T08:19:53.650Z,6.15
2019-05-25T08:22:24.309Z,5.25
2019-05-25T08:24:54.591Z,7.05
2019-05-25T08:27:24.895Z,25.05
2019-05-25T08:29:55.154Z,181.18
2019-05-25T08:32:25.784Z,15.83
2019-05-25T08:34:57.082Z,31.50
2019-05-25T08:37:27.679Z,5.65
2019-05-25T08:39:58.054Z,12.78
2019-05-25T08:42:28.277Z,8.10
2019-05-25T08:45:02.407Z,7.65
2019-05-25T08:47:34.827Z,6.50
2019-05-25T08:50:07.835Z,7.55
2019-05-25T08:52:39.288Z,6.75
2019-05-25T08:55:09.599Z,6.62
2019-05-25T08:57:39.816Z,5.55
2019-05-25T09:00:11.046Z,4.62
2019-05-25T09:02:41.676Z,6.35
2019-05-25T09:05:12.687Z,7.87
2019-05-25T09:07:43.870Z,7.40
2019-05-25T09:10:14.374Z,6.37
2019-05-25T09:12:44.586Z,7.10
2019-05-25T09:15:16.705Z,5.92
2019-05-25T09:17:48.056Z,5.12
2019-05-25T09:20:21.440Z,5.12
2019-05-25T09:25:21.522Z,8.63
2019-05-25T09:27:52.082Z,6.33
2019-05-25T09:30:22.506Z,6.03
2019-05-25T09:32:52.757Z,5.40
2019-05-25T09:35:23.347Z,5.12
2019-05-25T09:37:54.027Z,8.28
2019-05-25T09:40:24.493Z,8.23
2019-05-25T09:42:54.881Z,9.00
2019-05-25T09:45:25.096Z,10.55
2019-05-25T09:47:55.339Z,9.88
2019-05-25T09:50:26.133Z,6.80
2019-05-25T09:52:56.419Z,8.00
2019-05-25T09:55:26.643Z,6.22
2019-05-25T09:57:56.876Z,7.58
2019-05-25T10:00:27.850Z,6.10
2019-05-25T10:02:58.469Z,5.30
2019-05-25T10:05:29.014Z,7.58
2019-05-25T10:07:59.840Z,5.50
2019-05-25T10:10:30.147Z,5.95
2019-05-25T10:13:00.375Z,6.17
2019-05-25T10:15:30.802Z,4.70
2019-05-25T10:18:01.224Z,10.48
2019-05-25T10:20:31.561Z,7.10
2019-05-25T10:23:01.804Z,4.47
2019-05-25T10:25:32.303Z,4.72
2019-05-25T10:28:03.074Z,5.35
2019-05-25T10:30:36.110Z,6.70
2019-05-25T10:33:06.381Z,6.15
2019-05-25T10:35:36.920Z,8.08
2019-05-25T10:38:08.920Z,5.47
2019-05-25T10:40:39.613Z,5.40
2019-05-25T10:43:09.971Z,5.28
2019-05-25T10:45:40.198Z,4.92
2019-05-25T10:48:10.768Z,9.75
2019-05-25T10:50:41.066Z,5.28
2019-05-25T10:53:11.291Z,5.65
2019-05-25T10:55:41.930Z,8.45
2019-05-25T10:58:12.264Z,7.45
2019-05-25T11:00:42.603Z,7.83
2019-05-25T11:03:12.915Z,11.70
2019-05-25T11:05:43.192Z,7.12
2019-05-25T11:08:13.438Z,5.17
2019-05-25T11:10:45.624Z,6.35
2019-05-25T11:13:16.010Z,7.58
2019-05-25T11:15:46.587Z,8.88
2019-05-25T11:18:17.254Z,6.55
2019-05-25T11:20:47.713Z,6.45
2019-05-25T11:23:19.376Z,6.05
2019-05-25T11:25:50.017Z,5.80
2019-05-25T11:28:20.416Z,8.23
2019-05-25T11:30:50.897Z,4.45
2019-05-25T11:33:21.235Z,4.42
2019-05-25T11:35:51.455Z,6.65
2019-05-25T11:38:21.877Z,8.93
2019-05-25T11:40:52.529Z,4.47
2019-05-25T11:43:23.219Z,6.87
2019-05-25T11:45:53.576Z,6.30
2019-05-25T11:48:24.328Z,6.78
2019-05-25T11:50:54.667Z,5.12
2019-05-25T11:53:24.896Z,5.70
2019-05-25T11:55:55.083Z,7.87
2019-05-25T11:58:25.770Z,7.50
2019-05-25T12:00:56.021Z,5.12
2019-05-25T12:03:26.218Z,8.73
2019-05-25T12:05:56.441Z,3.83
2019-05-25T12:08:26.999Z,8.65
2019-05-25T12:10:57.406Z,8.83
2019-05-25T12:13:27.625Z,4.92
2019-05-25T12:15:58.224Z,7.42
2019-05-25T12:18:28.631Z,5.92
2019-05-25T12:20:59.226Z,7.87
2019-05-25T12:23:30.203Z,7.65
2019-05-25T12:26:00.571Z,6.12
2019-05-25T12:28:31.132Z,8.40
2019-05-25T12:31:01.554Z,7.08
2019-05-25T12:33:33.398Z,5.05
2019-05-25T12:36:04.752Z,4.62
2019-05-25T12:38:35.543Z,4.92
2019-05-25T12:41:06.727Z,5.90
2019-05-25T12:43:37.686Z,4.10
2019-05-25T12:46:07.944Z,9.55
2019-05-25T12:48:38.851Z,4.08
2019-05-25T12:51:09.132Z,4.62
2019-05-25T12:53:39.438Z,4.47
2019-05-25T12:56:09.740Z,7.87
2019-05-25T12:58:40.024Z,4.87
2019-05-25T13:01:10.274Z,4.53
2019-05-25T13:03:40.931Z,4.78
2019-05-25T13:06:11.231Z,6.12
2019-05-25T13:08:43.880Z,4.87
2019-05-25T13:11:13.405Z,12.73
2019-05-25T13:13:43.630Z,6.15
2019-05-25T13:16:14.682Z,10.82
2019-05-25T13:18:45.622Z,7.60
2019-05-25T13:21:16.005Z,7.85
2019-05-25T13:23:46.569Z,7.30
2019-05-25T13:26:16.856Z,6.78
2019-05-25T13:28:47.442Z,4.90
2019-05-25T13:31:18.052Z,7.08
2019-05-25T13:33:48.280Z,5.72
2019-05-25T13:36:18.515Z,6.72
2019-05-25T13:38:50.741Z,7.33
2019-05-25T13:41:21.582Z,8.68
2019-05-25T13:43:51.881Z,8.50
2019-05-25T13:46:22.288Z,8.73
2019-05-25T13:48:52.880Z,6.62
2019-05-25T13:51:23.325Z,7.42
2019-05-25T13:53:54.092Z,7.08
2019-05-25T13:56:24.700Z,7.65
2019-05-25T13:58:55.351Z,8.88
2019-05-25T14:01:28.729Z,8.88
2019-05-25T14:03:57.975Z,11.83
2019-05-25T14:06:29.430Z,11.73
2019-05-25T14:09:00.111Z,6.80
2019-05-25T14:11:30.795Z,7.53
2019-05-25T14:14:01.102Z,9.83
2019-05-25T14:16:31.336Z,9.48
2019-05-25T14:19:01.604Z,9.55
2019-05-25T14:21:31.835Z,10.18
2019-05-25T14:24:02.062Z,7.47
2019-05-25T14:26:32.283Z,9.83
2019-05-25T14:29:02.582Z,12.13
2019-05-25T14:31:44.922Z,10.98
2019-05-25T14:34:05.474Z,11.10
2019-05-25T14:36:35.807Z,6.97
2019-05-25T14:39:08.587Z,10.03
2019-05-25T14:41:39.139Z,7.87
2019-05-25T14:44:09.423Z,11.57
2019-05-25T14:46:40.031Z,9.55
2019-05-25T14:49:10.455Z,11.63
2019-05-25T14:51:40.813Z,7.92
2019-05-25T14:54:11.036Z,8.65
2019-05-25T14:56:41.273Z,8.63
2019-05-25T14:59:11.524Z,9.83
2019-05-25T15:01:41.789Z,9.08
2019-05-25T15:04:12.387Z,7.33
2019-05-25T15:06:43.016Z,10.65
2019-05-25T15:09:13.733Z,9.68
2019-05-25T15:11:44.081Z,8.60
2019-05-25T15:14:14.382Z,9.53
2019-05-25T15:16:46.325Z,7.92
2019-05-25T15:19:17.063Z,8.78
2019-05-25T15:21:47.449Z,9.58
2019-05-25T15:24:17.668Z,7.60
2019-05-25T15:26:47.879Z,11.00
2019-05-25T15:29:18.191Z,8.95
2019-05-25T15:31:48.646Z,8.13
2019-05-25T15:34:18.909Z,11.10
2019-05-25T15:36:49.625Z,6.75
2019-05-25T15:39:19.929Z,9.78
2019-05-25T15:41:50.501Z,6.58
2019-05-25T15:44:21.158Z,8.08
2019-05-25T15:46:51.955Z,9.15
2019-05-25T15:49:32.448Z,11.97
2019-05-25T15:51:54.794Z,6.08
2019-05-25T15:54:25.536Z,7.90
2019-05-25T15:56:55.913Z,8.48
2019-05-25T15:59:26.176Z,5.58
2019-05-25T16:01:56.479Z,7.62
2019-05-25T16:04:26.823Z,12.28
2019-05-25T16:06:57.386Z,9.03
2019-05-25T16:09:27.694Z,10.38
2019-05-25T16:11:57.989Z,8.70
2019-05-25T16:14:28.741Z,4.92
2019-05-25T16:16:59.153Z,6.05
2019-05-25T16:19:29.390Z,7.28
2019-05-25T16:21:59.612Z,5.47
2019-05-25T16:24:30.278Z,7.55
2019-05-25T16:27:00.563Z,6.05
2019-05-25T16:29:31.237Z,3.17
2019-05-25T16:32:01.947Z,3.80
2019-05-25T16:34:32.261Z,3.33
2019-05-25T16:37:02.686Z,7.60
2019-05-25T16:39:33.364Z,6.37
2019-05-25T16:42:04.015Z,8.10
2019-05-25T16:44:35.906Z,7.60
2019-05-25T16:47:06.925Z,5.60
2019-05-25T16:49:39.528Z,6.00
2019-05-25T16:52:10.175Z,7.67
2019-05-25T16:54:40.537Z,9.20
2019-05-25T16:57:10.795Z,6.72
2019-05-25T16:59:41.438Z,8.43
2019-05-25T17:02:11.780Z,10.72
2019-05-25T17:04:42.047Z,8.60
2019-05-25T17:07:12.437Z,8.13
2019-05-25T17:09:45.530Z,10.65
2019-05-25T17:12:16.108Z,8.33
2019-05-25T17:14:47.520Z,4.55
2019-05-25T17:17:17.756Z,5.00
2019-05-25T17:19:47.983Z,5.95
2019-05-25T17:22:18.277Z,11.15
2019-05-25T17:24:48.597Z,22.52
2019-05-25T17:27:18.937Z,20.08
2019-05-25T17:29:49.156Z,12.78
2019-05-25T17:32:19.475Z,25.68
2019-05-25T17:34:49.804Z,48.02
2019-05-25T17:37:20.061Z,40.70
2019-05-25T17:39:50.661Z,30.15
2019-05-25T17:42:21.365Z,21.05
2019-05-25T17:44:51.646Z,18.50
2019-05-25T17:47:23.776Z,22.50
2019-05-25T17:49:54.458Z,17.15
2019-05-25T17:52:25.147Z,15.30
2019-05-25T17:54:55.363Z,12.55
2019-05-25T17:57:25.614Z,9.15
2019-05-25T17:59:59.388Z,7.55
2019-05-25T18:02:29.944Z,5.20
2019-05-25T18:05:00.608Z,7.08
2019-05-25T18:07:31.064Z,9.35
2019-05-25T18:10:01.304Z,6.75
2019-05-25T18:12:33.676Z,9.08
2019-05-25T18:15:09.524Z,8.15
2019-05-25T18:17:39.775Z,7.80
2019-05-25T18:20:12.864Z,7.85
2019-05-25T18:22:46.133Z,11.05
2019-05-25T18:25:17.167Z,13.75
2019-05-25T18:27:49.251Z,13.03
2019-05-25T18:30:20.240Z,14.58
2019-05-25T18:32:50.876Z,18.98
2019-05-25T18:35:21.754Z,17.60
2019-05-25T18:37:52.130Z,22.17
2019-05-25T18:40:22.384Z,16.30
2019-05-25T18:42:53.050Z,23.42
2019-05-25T18:45:23.766Z,40.20
2019-05-25T18:47:54.566Z,64.72
2019-05-25T18:50:25.350Z,74.85
2019-05-25T18:52:56.038Z,88.40
2019-05-25T18:55:26.866Z,102.00
2019-05-25T18:57:57.314Z,110.48
2019-05-25T19:00:27.807Z,95.92
2019-05-25T19:02:58.825Z,76.10
2019-05-25T19:05:29.559Z,58.58
2019-05-25T19:07:59.917Z,43.92
2019-05-25T19:10:30.445Z,38.75
2019-05-25T19:13:00.686Z,39.03
2019-05-25T19:15:30.942Z,28.50
2019-05-25T19:18:01.349Z,21.37
2019-05-25T19:20:31.648Z,35.98
2019-05-25T19:23:02.038Z,32.65
2019-05-25T19:25:32.715Z,51.92
2019-05-25T19:28:03.033Z,76.35
2019-05-25T19:30:34.840Z,79.75
2019-05-25T19:33:06.550Z,77.97
2019-05-25T19:35:37.224Z,40.28
2019-05-25T19:38:08.100Z,44.15
2019-05-25T19:40:38.786Z,28.20
2019-05-25T19:43:09.121Z,30.85
2019-05-25T19:45:39.423Z,30.97
2019-05-25T19:48:09.680Z,26.62
2019-05-25T19:50:40.262Z,22.85
2019-05-25T19:53:10.559Z,23.45
2019-05-25T19:55:41.207Z,23.62
2019-05-25T19:58:11.542Z,19.00
2019-05-25T20:00:42.183Z,19.92
2019-05-25T20:03:12.725Z,14.23
2019-05-25T20:05:43.337Z,16.80
2019-05-25T20:08:13.919Z,12.60
2019-05-25T20:10:44.204Z,16.70
2019-05-25T20:13:14.493Z,15.85
2019-05-25T20:15:44.741Z,15.18
2019-05-25T20:18:14.997Z,14.68
2019-05-25T20:20:45.366Z,12.13
2019-05-25T20:23:15.625Z,12.65
2019-05-25T20:25:45.858Z,12.93
2019-05-25T20:28:16.181Z,14.43
2019-05-25T20:30:46.457Z,11.00
2019-05-25T20:33:26.984Z,9.50
2019-05-25T20:35:51.316Z,14.28
2019-05-25T20:38:23.696Z,16.62
2019-05-25T20:40:54.090Z,16.65
2019-05-25T20:43:24.359Z,15.45
2019-05-25T20:45:55.159Z,17.35
2019-05-25T20:48:27.121Z,13.85
2019-05-25T20:50:57.984Z,18.30
2019-05-25T20:53:28.257Z,13.68
2019-05-25T20:55:58.700Z,17.05
2019-05-25T20:58:28.941Z,18.37
2019-05-25T21:00:59.558Z,16.27
2019-05-25T21:03:29.801Z,26.75
2019-05-25T21:06:00.076Z,22.13
2019-05-25T21:08:30.715Z,22.87
2019-05-25T21:11:01.346Z,20.62
2019-05-25T21:13:32.032Z,24.52
2019-05-25T21:16:02.414Z,27.50
2019-05-25T21:18:32.653Z,23.30
2019-05-25T21:21:03.005Z,24.30
2019-05-25T21:23:33.260Z,17.10
2019-05-25T21:26:04.386Z,23.92
2019-05-25T21:28:36.590Z,11.85
2019-05-25T21:31:07.525Z,12.10
2019-05-25T21:33:38.225Z,14.15
2019-05-25T21:36:09.430Z,14.98
2019-05-25T21:38:39.890Z,14.85
2019-05-25T21:41:10.476Z,23.80
2019-05-25T21:43:41.130Z,15.90
2019-05-25T21:46:11.450Z,26.02
2019-05-25T21:48:42.023Z,18.32
2019-05-25T21:51:14.315Z,20.88
2019-05-25T21:53:44.612Z,19.92
2019-05-25T21:56:14.887Z,20.95
2019-05-25T21:58:45.107Z,14.53
2019-05-25T22:01:15.695Z,20.37
2019-05-25T22:03:45.918Z,15.80
2019-05-25T22:06:24.316Z,17.67
2019-05-25T22:08:48.066Z,23.27
2019-05-25T22:11:18.329Z,19.65
2019-05-25T22:13:48.735Z,20.43
2019-05-25T22:16:19.309Z,18.80
2019-05-25T22:18:49.798Z,17.40
2019-05-25T22:21:20.367Z,20.60
2019-05-25T22:23:50.696Z,23.45
2019-05-25T22:26:20.954Z,25.00
2019-05-25T22:28:51.185Z,22.25
2019-05-25T22:31:21.470Z,21.70
2019-05-25T22:33:51.680Z,24.65
2019-05-25T22:36:21.906Z,24.70
2019-05-25T22:38:52.144Z,24.47
2019-05-25T22:41:22.398Z,18.50
2019-05-25T22:43:52.986Z,22.15
2019-05-25T22:46:23.635Z,22.42
2019-05-25T22:48:54.337Z,19.40
2019-05-25T22:51:24.833Z,19.60
2019-05-25T22:53:55.476Z,23.18
2019-05-25T22:56:26.059Z,26.07
2019-05-25T22:58:57.894Z,21.42
2019-05-25T23:01:28.385Z,23.80
2019-05-25T23:03:58.607Z,21.68
2019-05-25T23:06:29.234Z,22.25
2019-05-25T23:08:59.909Z,28.40
2019-05-25T23:11:30.369Z,20.40
2019-05-25T23:14:00.680Z,27.73
2019-05-25T23:16:31.047Z,25.37
2019-05-25T23:19:01.290Z,19.60
2019-05-25T23:21:31.578Z,21.93
2019-05-25T23:24:01.889Z,22.35
2019-05-25T23:26:32.118Z,18.77
2019-05-25T23:29:02.359Z,22.42
2019-05-25T23:31:32.754Z,17.55
2019-05-25T23:34:03.102Z,17.90
2019-05-25T23:36:33.309Z,21.73
2019-05-25T23:39:24.345Z,20.35
2019-05-25T23:41:54.925Z,21.97
2019-05-25T23:44:25.785Z,22.00
2019-05-25T23:46:56.062Z,21.90
2019-05-25T23:49:26.311Z,19.20
2019-05-25T23:51:56.529Z,22.00
2019-05-25T23:54:26.933Z,18.48
2019-05-25T23:56:57.143Z,20.68
2019-05-25T23:59:27.658Z,18.50
